Startpagina
METAR-TAF:

METAR-TAF

Vliegvelden :

Ndjamena, Tsjaad

breedte: 12-08N, lengte: 015-02E, hoogte: 295 m

Actueel weer

Dit bericht is 39 minuten geleden gemaakt, om 13:00 UTC
Wind 7 kt uit het westen, variërend tussen het westen en het oosten
Temperatuur 39°C
Vochtigheid 11%
Druk 1006 hPa
Zicht 10 km of meer
geen wolken onder 1500 m en geen cumulonimbus

METAR: FTTJ 171300Z 27007KT 270V080 CAVOK 39/03 Q1006 NOSIG

Tijdstip: 14:39 (13:39 UTC)

Verwachting

Dit bericht is 2 uur en het 39 minuten geleden gemaakt, om 11:00 UTC
Verwachting geldig van 17 om 12 UTC tot 18 om 18 UTC
Wind 8 kt uit het noordoosten
Zicht: 8000 m
Tijdelijke
van 17 om 16 UTC tot 18 om 06 UTC
Wind 4 kt uit variabele richting
Zicht: 4000 m
Heiigheid

TAF: FTTJ 171100Z 1712/1818 04008KT 8000 NSC TEMPO 1716/1806 VRB04KT 4000 HZ

Waarnemingen en weersverwachtingen van meer dan 4000 vliegvelden (METAR en TAF).

De beschikbare stations zijn de gele en rode punten op de kaart.

Ga met uw muis naar het station om de naam te zien.

Klik dan om waarnemingen en weersverwachtingen te zien.

kaart wijzigen: klik op de groene knoppen met een zwart kruis om in te zoomen, op de groene knop met een streepje om uit te zoomen of op de groene pijlen voor aangrenzende kaarten.


METAR-TAF: